Downstream station:
SHEF ID: ESCO2 Skeleton Creek at Enid, OK
STATION TYPE:
Regulating: Stage = 14.60, Flow = 7003
PRECIP STAGE RIV-FLOW WTR-TEMP CONDUCT VOLTAGE
in ft cfs F umho/cm volt
Ccp-Rev Ccp-Rev Ccp-Rev Ccp-Rev Ccp-Rev Ccp-Rev
(US/Central)
07/08 00:00 0.00 2.48 5 81.03 1232 12.98
07/08 01:00 0.00 2.50 6 80.22 1222 12.95
07/08 02:00 0.00 2.48 5 79.30 1202 12.92
07/08 03:00 0.00 2.49 5 77.97 1170 12.90
07/08 04:00 0.00 2.48 5 76.98 1191 12.88
07/08 05:00 0.00 2.47 5 76.73 1190 12.87
07/08 06:00 0.00 2.46 4 76.66 1188 12.86
07/08 07:00 0.00 2.46 4 76.64 1179 12.85
07/08 08:00 0.00 2.46 4 77.31 1162 12.90
07/08 09:00 0.00 2.46 4 79.29 1144 13.03
07/08 10:00 0.00 2.47 5 82.31 1131 13.33
07/08 11:00 0.00 2.47 5 85.41 1131 13.45
07/08 12:00 0.00 2.48 5 89.56 1148 13.64
07/08 13:00 0.00 2.50 6 94.64 1229 13.73
07/08 14:00 0.00 2.50 6 92.59 1299 13.35
07/08 15:00 0.00 2.51 6 91.06 1305 13.47
07/08 16:00 0.00 2.50 6 94.21 1326 13.56
07/08 17:00 0.00 2.50 6 91.26 1323 13.43
07/08 18:00 0.00 2.50 6 87.12 1316 13.19
07/08 19:00 0.00 2.49 5 85.77 1305 13.13
07/08 20:00 0.00 2.49 5 84.61 1295 13.09
07/08 21:00 0.00 2.49 5 82.96 1288 13.04
07/08 22:00 0.00 2.48 5 82.00 1291 13.00
07/08 23:00 0.00 2.49 5 81.07 1291 12.97